Time;durP1;ratioP1;P1;durP2;ratioP2;P2;SDS_P1;SDS_P2;PMS_P1;PMS_P2;Temp;Humidity;BMP_temperature;BMP_pressure;BME280_temperature;BME280_humidity;BME280_pressure;Samples;Min_cycle;Max_cycle;Signal;HPM_P1;HPM_P2
2021/08/16 00:01:08;;;;;;;16.17;3.53;;;;;;;18.16;74.47;101036.38;5030944;28;20025;-67
2021/08/16 00:03:34;;;;;;;16.65;3.30;;;;;;;18.17;74.64;101022.84;5031116;28;20791;-68
2021/08/16 00:06:00;;;;;;;16.98;3.42;;;;;;;18.17;74.63;101009.47;5032434;28;20120;-67
2021/08/16 00:08:25;;;;;;;14.75;3.10;;;;;;;18.14;75.04;101015.03;5031919;28;20029;-68
2021/08/16 00:10:50;;;;;;;17.98;4.13;;;;;;;18.16;75.02;101025.66;5031101;28;20029;-68
2021/08/16 00:13:16;;;;;;;22.08;3.70;;;;;;;18.14;75.20;101017.69;5031542;28;20168;-68
2021/08/16 00:15:41;;;;;;;18.67;3.58;;;;;;;18.13;75.52;101015.16;5032709;28;20107;-69
2021/08/16 00:18:06;;;;;;;20.98;3.83;;;;;;;18.09;75.41;101025.22;5032976;28;20033;-68
2021/08/16 00:20:32;;;;;;;14.30;3.50;;;;;;;18.09;75.67;101016.34;5033126;28;20394;-68
2021/08/16 00:22:57;;;;;;;19.27;4.10;;;;;;;18.06;75.58;101022.78;5031060;28;20132;-68
2021/08/16 00:25:23;;;;;;;16.08;3.30;;;;;;;18.05;75.85;101006.84;5030843;28;20044;-68
2021/08/16 00:27:48;;;;;;;20.90;3.83;;;;;;;18.06;75.64;101014.75;5032993;28;20029;-68
2021/08/16 00:30:14;;;;;;;13.88;3.33;;;;;;;18.07;75.71;101011.09;5030793;28;20048;-66
2021/08/16 00:32:39;;;;;;;17.00;3.63;;;;;;;18.06;76.07;101011.22;5016805;28;20030;-68
2021/08/16 00:35:05;;;;;;;18.60;3.83;;;;;;;18.10;75.78;101015.38;5013149;28;20029;-68
2021/08/16 00:37:30;;;;;;;20.92;3.75;;;;;;;18.12;75.45;101014.31;5012663;28;20475;-68
2021/08/16 00:39:55;;;;;;;15.23;3.15;;;;;;;18.11;75.42;101012.59;5012898;28;20431;-68
2021/08/16 00:42:21;;;;;;;18.48;3.60;;;;;;;18.12;75.68;101010.75;5014315;28;20018;-67
2021/08/16 00:44:46;;;;;;;14.25;2.90;;;;;;;18.11;75.70;101017.94;5022924;28;20053;-67
2021/08/16 00:47:14;;;;;;;12.95;2.80;;;;;;;18.11;75.58;101006.38;5012604;28;20028;-68
2021/08/16 00:49:39;;;;;;;16.75;3.47;;;;;;;18.05;75.91;101017.56;5013178;28;20018;-67
2021/08/16 00:52:04;;;;;;;12.55;3.30;;;;;;;18.04;76.03;101011.31;5013051;28;20088;-68
2021/08/16 00:54:31;;;;;;;14.05;3.35;;;;;;;18.04;76.10;101010.47;5014134;28;20033;-68
2021/08/16 00:57:00;;;;;;;16.15;3.30;;;;;;;18.01;76.12;101023.13;5012764;28;20099;-67
2021/08/16 00:59:26;;;;;;;15.18;3.42;;;;;;;18.03;76.07;101020.34;5012722;28;20025;-68
2021/08/16 01:01:51;;;;;;;15.93;2.88;;;;;;;18.07;76.00;101007.56;5012577;28;20601;-67
2021/08/16 01:04:17;;;;;;;14.70;3.42;;;;;;;18.05;76.22;101013.03;5014400;28;20073;-68
2021/08/16 01:06:42;;;;;;;14.90;3.40;;;;;;;18.07;76.15;101012.91;5013227;28;20049;-68
2021/08/16 01:09:07;;;;;;;18.70;3.30;;;;;;;18.09;76.22;101008.31;5013517;28;20049;-68
2021/08/16 01:11:33;;;;;;;13.38;2.90;;;;;;;18.11;75.76;101012.59;5026921;28;20116;-67
2021/08/16 01:13:58;;;;;;;16.65;3.08;;;;;;;18.10;76.04;101007.34;5031613;28;20057;-67
2021/08/16 01:16:23;;;;;;;17.13;3.15;;;;;;;18.10;75.97;100999.31;5031644;28;20115;-67
2021/08/16 01:18:49;;;;;;;17.85;3.70;;;;;;;18.07;76.14;101000.38;5031478;28;20021;-67
2021/08/16 01:21:16;;;;;;;17.15;3.10;;;;;;;18.09;76.54;101006.47;5029872;28;20034;-68
2021/08/16 01:23:43;;;;;;;13.07;3.25;;;;;;;18.11;75.85;101003.69;5027843;28;20036;-68
2021/08/16 01:26:10;;;;;;;12.40;3.40;;;;;;;18.16;76.21;101010.41;5011264;28;20064;-67
2021/08/16 01:28:35;;;;;;;16.02;3.05;;;;;;;18.14;76.12;101006.97;5012356;28;20061;-67
2021/08/16 01:31:04;;;;;;;14.30;3.60;;;;;;;18.15;76.33;101008.69;5012898;28;20049;-67
2021/08/16 01:33:31;;;;;;;19.65;3.25;;;;;;;18.16;75.62;101005.06;5012363;28;20088;-68
2021/08/16 01:35:56;;;;;;;10.07;2.33;;;;;;;18.18;75.85;101002.25;5011974;28;20518;-67
2021/08/16 01:38:40;;;;;;;16.75;3.47;;;;;;;18.16;75.80;100996.19;5012207;28;20057;-68
2021/08/16 01:41:05;;;;;;;15.07;3.78;;;;;;;18.18;75.14;101003.13;5017244;28;20072;-68
2021/08/16 01:43:31;;;;;;;15.48;2.90;;;;;;;18.23;74.51;100997.41;5030523;28;20104;-68
2021/08/16 01:45:59;;;;;;;12.18;2.58;;;;;;;18.24;74.70;100996.44;5032047;28;20057;-68
2021/08/16 01:48:24;;;;;;;11.95;3.10;;;;;;;18.21;74.33;100985.97;5031566;28;20032;-68
2021/08/16 01:50:50;;;;;;;15.88;3.38;;;;;;;18.24;74.32;100998.28;5031615;28;20037;-65
2021/08/16 01:53:15;;;;;;;13.73;3.30;;;;;;;18.24;74.49;100990.25;5030534;28;20100;-67
2021/08/16 01:55:41;;;;;;;15.38;3.30;;;;;;;18.22;74.27;100978.78;5030136;28;20057;-68
2021/08/16 01:58:07;;;;;;;13.57;3.08;;;;;;;18.27;74.03;100992.69;5031947;28;20056;-68
2021/08/16 02:00:33;;;;;;;14.60;3.13;;;;;;;18.29;74.15;100994.28;5031678;28;20491;-68
2021/08/16 02:02:58;;;;;;;17.25;3.90;;;;;;;18.31;73.90;100991.47;5031783;28;20028;-68
2021/08/16 02:05:24;;;;;;;13.15;3.10;;;;;;;18.34;73.71;100999.31;5034313;28;20487;-68
2021/08/16 02:07:49;;;;;;;10.50;2.70;;;;;;;18.34;73.65;100993.94;5035555;28;20336;-67
2021/08/16 02:10:14;;;;;;;14.43;3.28;;;;;;;18.35;73.53;101001.03;5035322;28;20084;-68
2021/08/16 02:12:40;;;;;;;7.60;2.67;;;;;;;18.33;73.87;100989.53;5034145;28;20092;-68
2021/08/16 02:15:08;;;;;;;13.82;2.80;;;;;;;18.33;74.09;100982.34;5035659;28;20037;-68
2021/08/16 02:17:33;;;;;;;11.70;3.08;;;;;;;18.29;73.89;100990.75;5016820;28;20053;-68
2021/08/16 02:19:58;;;;;;;13.73;3.17;;;;;;;18.31;73.81;101000.38;5014342;28;20041;-67
2021/08/16 02:22:24;;;;;;;14.75;3.88;;;;;;;18.30;74.03;100996.00;5014452;28;20456;-67
2021/08/16 02:24:49;;;;;;;18.08;3.33;;;;;;;18.31;74.28;100995.03;5015798;28;20033;-66
2021/08/16 02:27:14;;;;;;;12.27;2.90;;;;;;;18.29;74.54;100996.13;5016182;28;20080;-67
2021/08/16 02:29:40;;;;;;;15.00;3.22;;;;;;;18.32;74.55;101003.91;5014384;28;20411;-67
2021/08/16 02:32:05;;;;;;;16.80;3.08;;;;;;;18.29;74.59;101005.00;5015032;28;20065;-68
2021/08/16 02:34:31;;;;;;;10.10;2.65;;;;;;;18.28;74.79;100989.03;5025536;28;20387;-68
2021/08/16 02:36:56;;;;;;;11.55;3.17;;;;;;;18.27;75.24;100996.19;5019627;28;20228;-66
2021/08/16 02:39:21;;;;;;;15.20;3.75;;;;;;;18.21;75.52;101003.84;5014128;28;20125;-66
2021/08/16 02:41:47;;;;;;;11.60;3.50;;;;;;;18.22;75.43;100998.38;5014065;28;20116;-66
2021/08/16 02:44:12;;;;;;;12.65;3.53;;;;;;;18.19;75.97;100998.63;5014464;28;20125;-67
2021/08/16 02:46:37;;;;;;;14.32;3.42;;;;;;;18.21;75.93;100998.50;5013597;28;20060;-67
2021/08/16 02:49:03;;;;;;;11.68;3.35;;;;;;;18.16;75.97;100999.69;5014659;28;20387;-66
2021/08/16 02:51:28;;;;;;;17.67;3.38;;;;;;;18.13;76.20;100999.94;5013682;28;20033;-69
2021/08/16 02:53:54;;;;;;;10.55;2.95;;;;;;;18.13;76.36;101001.75;5014182;28;20074;-68
2021/08/16 02:56:20;;;;;;;17.73;3.05;;;;;;;18.12;76.60;101000.03;5013470;28;20565;-67
2021/08/16 02:58:45;;;;;;;14.43;3.03;;;;;;;18.09;76.68;101002.94;5015053;28;20026;-68
2021/08/16 03:01:11;;;;;;;15.02;3.67;;;;;;;18.10;76.96;100996.63;5014666;28;20042;-67
2021/08/16 03:03:36;;;;;;;11.05;3.03;;;;;;;18.10;76.65;100989.44;5020142;28;20633;-68
2021/08/16 03:06:03;;;;;;;11.70;2.88;;;;;;;18.07;76.90;100994.16;5032780;28;20120;-66
2021/08/16 03:08:28;;;;;;;12.18;2.92;;;;;;;18.07;76.96;100992.34;5032887;28;20112;-68
2021/08/16 03:10:54;;;;;;;15.70;3.40;;;;;;;18.05;76.84;100996.13;5013406;28;20188;-67
2021/08/16 03:13:19;;;;;;;11.65;3.28;;;;;;;18.06;76.69;100981.75;5012893;28;20430;-67
2021/08/16 03:15:44;;;;;;;9.93;2.97;;;;;;;17.96;77.37;100985.09;5019713;28;20033;-68
2021/08/16 03:18:10;;;;;;;10.35;2.80;;;;;;;17.93;77.16;100973.72;5032927;28;20037;-67
2021/08/16 03:20:35;;;;;;;13.93;2.97;;;;;;;17.92;77.26;100975.53;5031651;28;20036;-67
2021/08/16 03:23:01;;;;;;;12.68;3.25;;;;;;;17.95;77.21;100985.22;5033563;28;20025;-67
2021/08/16 03:25:26;;;;;;;13.90;2.70;;;;;;;17.92;77.14;100977.38;5031531;28;20036;-66
2021/08/16 03:27:51;;;;;;;11.88;2.65;;;;;;;17.92;77.20;100974.69;5033178;28;20116;-68
2021/08/16 03:30:17;;;;;;;11.98;2.92;;;;;;;17.90;77.31;100974.78;5031822;28;20033;-67
2021/08/16 03:32:42;;;;;;;10.50;2.78;;;;;;;17.91;77.53;100973.81;5033135;28;20014;-67
2021/08/16 03:35:08;;;;;;;11.93;2.88;;;;;;;17.95;77.29;100969.13;5033345;28;20029;-67
2021/08/16 03:37:35;;;;;;;16.15;3.45;;;;;;;17.89;77.20;100973.09;5031263;28;20032;-67
2021/08/16 03:40:03;;;;;;;10.15;2.53;;;;;;;17.87;77.60;100977.72;5032636;28;20137;-67
2021/08/16 03:42:28;;;;;;;10.00;2.50;;;;;;;17.92;77.22;100972.03;5031382;28;20029;-67
2021/08/16 03:44:54;;;;;;;10.10;2.97;;;;;;;17.90;77.45;100972.13;5033145;28;20099;-66
2021/08/16 03:47:19;;;;;;;14.50;2.90;;;;;;;17.89;77.71;100975.78;5031072;28;20025;-67
2021/08/16 03:49:44;;;;;;;13.32;3.20;;;;;;;17.84;77.92;100968.06;5033099;28;20037;-67
2021/08/16 03:52:10;;;;;;;11.95;2.85;;;;;;;17.85;77.52;100963.56;5023015;28;20033;-68
2021/08/16 03:54:36;;;;;;;12.23;3.13;;;;;;;17.80;77.38;100963.91;4995285;28;20383;-66
2021/08/16 03:57:01;;;;;;;14.90;2.88;;;;;;;17.81;77.43;100960.28;5013386;28;20022;-67
2021/08/16 03:59:26;;;;;;;9.98;3.00;;;;;;;17.83;77.53;100949.44;5013165;28;20199;-67
2021/08/16 04:01:52;;;;;;;14.07;3.10;;;;;;;17.84;77.61;100952.00;5014618;28;20529;-68
2021/08/16 04:04:17;;;;;;;12.27;3.05;;;;;;;17.79;77.69;100954.16;5013095;28;20029;-67
2021/08/16 04:06:44;;;;;;;9.43;2.50;;;;;;;17.81;77.66;100959.41;5012783;28;20026;-67
2021/08/16 04:09:09;;;;;;;10.05;2.45;;;;;;;17.81;77.55;100951.38;5014063;28;20054;-67
2021/08/16 04:11:35;;;;;;;10.43;3.10;;;;;;;17.77;77.55;100961.44;5013299;28;20468;-68
2021/08/16 04:14:00;;;;;;;11.10;2.90;;;;;;;17.80;77.90;100955.00;5014661;28;20037;-67
2021/08/16 04:16:25;;;;;;;14.13;2.78;;;;;;;17.78;78.42;100963.16;5013145;28;20048;-67
2021/08/16 04:18:51;;;;;;;14.55;3.30;;;;;;;17.69;80.84;100971.88;5013850;28;20033;-67
2021/08/16 04:21:16;;;;;;;12.80;3.45;;;;;;;17.52;83.44;100960.56;5012689;28;20018;-66
2021/08/16 04:23:41;;;;;;;15.63;3.40;;;;;;;17.38;83.78;100962.50;5018294;28;20113;-67
2021/08/16 04:26:07;;;;;;;17.48;3.10;;;;;;;17.25;84.50;100971.44;5032410;28;20105;-67
2021/08/16 04:28:32;;;;;;;14.52;3.33;;;;;;;17.14;84.96;100972.19;5030468;28;20033;-65
2021/08/16 04:30:57;;;;;;;13.05;3.38;;;;;;;16.97;85.14;100970.69;5032228;28;20029;-67
2021/08/16 04:33:24;;;;;;;16.88;3.42;;;;;;;16.87;86.69;100975.78;5032244;28;20033;-67
2021/08/16 04:35:51;;;;;;;8.80;3.28;;;;;;;16.78;87.22;100952.38;5030297;28;20021;-66
2021/08/16 04:38:19;;;;;;;11.98;3.33;;;;;;;16.69;87.57;100956.53;5029914;28;20109;-64
2021/08/16 04:40:47;;;;;;;9.48;3.35;;;;;;;16.59;87.57;100968.81;5032266;28;20033;-65
2021/08/16 04:43:13;;;;;;;15.15;3.97;;;;;;;16.52;88.32;100979.09;5031936;28;20390;-67
2021/08/16 04:45:38;;;;;;;9.07;3.40;;;;;;;16.52;89.10;100976.41;5030556;28;20121;-66
2021/08/16 04:48:04;;;;;;;13.35;3.33;;;;;;;16.51;88.39;100985.38;5031866;28;20060;-65
2021/08/16 04:50:29;;;;;;;12.70;3.42;;;;;;;16.45;89.26;100980.44;5029252;28;20029;-66
2021/08/16 04:52:57;;;;;;;11.43;3.53;;;;;;;16.48;89.34;100976.72;5032246;28;20033;-67
2021/08/16 04:55:22;;;;;;;13.15;3.63;;;;;;;16.50;89.37;100969.47;5030762;28;20435;-65
2021/08/16 04:57:47;;;;;;;13.60;3.33;;;;;;;16.51;89.45;100985.38;5031760;28;20039;-67
2021/08/16 05:00:14;;;;;;;9.93;3.40;;;;;;;16.48;88.61;100982.06;5029485;28;20037;-66
2021/08/16 05:02:40;;;;;;;13.45;3.13;;;;;;;16.50;88.15;100983.66;5018289;28;20033;-65
2021/08/16 05:05:14;;;;;;;10.80;2.97;;;;;;;16.50;88.18;100986.34;5031674;28;20090;-65
2021/08/16 05:07:51;;;;;;;12.95;3.03;;;;;;;16.51;89.22;100992.56;5032312;28;20549;-67
2021/08/16 05:10:17;;;;;;;9.27;3.10;;;;;;;16.53;88.75;100991.50;5030112;28;20132;-66
2021/08/16 05:12:43;;;;;;;12.57;3.00;;;;;;;16.50;88.40;100980.16;5021058;28;20113;-66
2021/08/16 05:15:09;;;;;;;9.45;2.90;;;;;;;16.47;88.43;100986.56;5022254;28;20036;-66
2021/08/16 05:17:35;;;;;;;8.70;2.90;;;;;;;16.39;88.54;100988.88;5029922;28;20029;-66
2021/08/16 05:20:03;;;;;;;9.07;2.60;;;;;;;16.37;88.27;100990.81;5013893;28;20026;-65
2021/08/16 05:22:29;;;;;;;7.88;2.83;;;;;;;16.37;88.07;100998.81;5030808;28;20026;-66
2021/08/16 05:24:54;;;;;;;9.07;3.15;;;;;;;16.38;87.28;100989.81;5031735;28;20049;-66
2021/08/16 05:27:20;;;;;;;5.70;2.50;;;;;;;16.34;88.02;100988.31;5030663;28;20026;-66
2021/08/16 05:29:45;;;;;;;5.47;2.75;;;;;;;16.30;87.24;100990.34;5013328;28;20156;-66
2021/08/16 05:32:10;;;;;;;9.82;3.10;;;;;;;16.26;87.52;101002.19;5030217;28;20135;-67
2021/08/16 05:34:36;;;;;;;8.10;3.10;;;;;;;16.21;87.99;101004.31;5032263;28;20033;-67
2021/08/16 05:37:02;;;;;;;9.82;3.67;;;;;;;16.18;88.79;101008.06;5033965;28;20021;-66
2021/08/16 05:39:27;;;;;;;13.25;3.97;;;;;;;16.14;88.84;101011.00;5036470;28;20156;-65
2021/08/16 05:41:53;;;;;;;10.00;4.13;;;;;;;16.16;89.18;101020.66;5029877;28;20048;-66
2021/08/16 05:44:18;;;;;;;14.18;3.80;;;;;;;16.05;88.96;101016.00;5016912;28;20167;-67
2021/08/16 05:46:43;;;;;;;13.20;4.13;;;;;;;16.02;88.58;101018.03;5017405;28;20044;-68
2021/08/16 05:49:09;;;;;;;14.43;3.88;;;;;;;15.94;88.90;101031.88;5032981;28;20029;-67
2021/08/16 05:51:34;;;;;;;11.60;4.00;;;;;;;16.00;88.68;101023.47;5038418;28;20545;-67
2021/08/16 05:53:59;;;;;;;11.25;4.10;;;;;;;16.09;89.08;101021.16;5038074;28;20049;-67
2021/08/16 05:56:25;;;;;;;8.73;4.00;;;;;;;16.10;87.54;101023.75;5037941;28;20439;-67
2021/08/16 05:58:50;;;;;;;11.82;3.85;;;;;;;16.09;86.51;101021.16;5032889;28;20451;-66
2021/08/16 06:01:15;;;;;;;9.75;3.70;;;;;;;16.11;86.76;101021.91;5039614;28;20114;-67
2021/08/16 06:03:41;;;;;;;8.48;3.35;;;;;;;16.19;85.96;101023.13;5028887;28;20028;-68
2021/08/16 06:06:06;;;;;;;8.43;2.97;;;;;;;16.29;86.12;101027.84;5058346;28;20025;-68
2021/08/16 06:08:31;;;;;;;10.73;3.70;;;;;;;16.36;85.38;101031.84;5051212;28;20112;-67
2021/08/16 06:10:58;;;;;;;14.55;3.80;;;;;;;16.44;86.66;101039.38;5057913;28;20128;-65
2021/08/16 06:13:24;;;;;;;12.60;3.80;;;;;;;16.41;85.98;101028.84;5053987;28;20055;-66
2021/08/16 06:15:49;;;;;;;10.60;3.13;;;;;;;16.35;85.20;101033.66;5034244;28;20449;-66
2021/08/16 06:18:14;;;;;;;11.35;3.45;;;;;;;16.30;85.72;101046.47;5034666;28;20095;-67
2021/08/16 06:20:40;;;;;;;11.90;4.05;;;;;;;16.26;86.29;101044.94;5033542;28;20121;-68
2021/08/16 06:23:06;;;;;;;7.97;3.47;;;;;;;16.30;85.57;101041.13;5034444;28;20041;-65
2021/08/16 06:25:31;;;;;;;10.75;4.00;;;;;;;16.32;84.48;101049.91;5017878;28;20432;-67
2021/08/16 06:27:56;;;;;;;12.35;3.70;;;;;;;16.28;84.76;101056.41;5033288;28;20075;-66
2021/08/16 06:30:22;;;;;;;13.25;3.83;;;;;;;16.17;85.73;101067.78;5030924;28;20022;-66
2021/08/16 06:32:47;;;;;;;10.05;3.50;;;;;;;16.08;86.11;101068.38;5033367;28;20040;-67
2021/08/16 06:35:17;;;;;;;10.80;3.47;;;;;;;15.94;86.44;101077.28;5034653;28;20029;-67
2021/08/16 06:37:44;;;;;;;10.75;4.10;;;;;;;15.80;86.82;101069.25;5034463;28;20148;-65
2021/08/16 06:40:10;;;;;;;12.07;4.28;;;;;;;15.77;87.91;101075.66;5033130;28;20025;-67
2021/08/16 06:42:35;;;;;;;14.45;4.43;;;;;;;15.76;87.86;101078.44;5031910;28;20029;-66
2021/08/16 06:45:00;;;;;;;12.52;4.00;;;;;;;15.70;86.85;101080.53;5036712;28;20105;-66
2021/08/16 06:47:26;;;;;;;14.75;4.28;;;;;;;15.68;86.24;101079.75;5034039;28;20386;-68
2021/08/16 06:49:51;;;;;;;14.20;4.10;;;;;;;15.68;85.75;101089.59;5040787;28;20386;-67
2021/08/16 06:52:16;;;;;;;8.90;3.70;;;;;;;15.65;85.70;101098.66;5030962;28;20121;-68
2021/08/16 06:54:42;;;;;;;11.55;4.07;;;;;;;15.62;85.55;101100.66;5030577;28;20025;-67
2021/08/16 06:57:07;;;;;;;13.18;3.80;;;;;;;15.55;84.91;101111.69;5030555;28;20033;-67
2021/08/16 06:59:33;;;;;;;11.75;3.58;;;;;;;15.53;84.90;101104.72;5012341;28;20108;-67
2021/08/16 07:01:59;;;;;;;12.13;4.15;;;;;;;15.57;84.75;101108.94;5030629;28;20034;-65
2021/08/16 07:04:24;;;;;;;8.80;3.40;;;;;;;15.60;83.49;101107.88;5030683;28;20083;-67
2021/08/16 07:06:50;;;;;;;13.52;3.90;;;;;;;15.60;83.86;101108.75;5030755;28;20115;-68
2021/08/16 07:09:15;;;;;;;11.70;3.80;;;;;;;15.62;84.47;101108.66;5029777;28;20518;-65
2021/08/16 07:11:40;;;;;;;6.18;3.20;;;;;;;15.61;83.82;101113.13;5029595;28;20041;-67
2021/08/16 07:14:06;;;;;;;8.25;3.20;;;;;;;15.70;83.51;101109.03;5030304;28;20033;-68
2021/08/16 07:16:31;;;;;;;6.90;3.13;;;;;;;15.81;82.68;101114.59;5029926;28;20032;-68
2021/08/16 07:18:56;;;;;;;8.02;3.30;;;;;;;16.05;82.02;101106.84;5030749;28;20025;-67
2021/08/16 07:21:22;;;;;;;10.05;3.25;;;;;;;16.44;81.96;101112.38;5012558;28;20399;-68
2021/08/16 07:23:47;;;;;;;8.07;3.22;;;;;;;16.74;79.15;101119.34;5029232;28;20121;-67
2021/08/16 07:26:12;;;;;;;11.98;3.42;;;;;;;16.72;78.28;101110.56;5030729;28;20139;-67
2021/08/16 07:28:38;;;;;;;8.15;3.35;;;;;;;16.68;78.93;101115.25;5031146;28;20140;-67
2021/08/16 07:31:04;;;;;;;10.18;3.40;;;;;;;16.73;79.08;101114.06;5031039;28;20128;-67
2021/08/16 07:33:29;;;;;;;9.15;3.20;;;;;;;16.76;79.55;101117.41;5025472;28;20066;-66
2021/08/16 07:35:55;;;;;;;9.77;3.13;;;;;;;16.98;77.00;101124.03;5011656;28;20026;-68
2021/08/16 07:38:21;;;;;;;9.63;3.22;;;;;;;17.33;75.20;101124.31;5018816;28;20049;-68
2021/08/16 07:40:46;;;;;;;10.73;3.45;;;;;;;17.56;74.24;101137.06;5030990;28;20667;-68
2021/08/16 07:43:13;;;;;;;16.35;4.13;;;;;;;17.36;74.95;101136.63;5020536;28;20036;-68
2021/08/16 07:45:40;;;;;;;10.05;3.42;;;;;;;17.35;74.97;101135.78;5031619;28;20344;-68
2021/08/16 07:48:05;;;;;;;12.00;4.30;;;;;;;17.39;73.28;101138.22;5038259;28;20167;-67
2021/08/16 07:50:32;;;;;;;10.93;3.50;;;;;;;17.30;71.63;101145.06;5024910;28;20104;-67
2021/08/16 07:52:58;;;;;;;8.93;3.75;;;;;;;17.26;73.24;101148.94;5031062;28;20082;-66
2021/08/16 07:55:24;;;;;;;14.55;4.07;;;;;;;17.10;70.88;101144.63;5021837;28;20090;-67
2021/08/16 07:57:50;;;;;;;9.80;4.15;;;;;;;17.03;71.54;101141.50;5028871;28;20032;-66
2021/08/16 08:00:16;;;;;;;10.95;3.92;;;;;;;17.09;71.71;101150.91;5024431;28;20025;-67
2021/08/16 08:02:47;;;;;;;10.10;4.15;;;;;;;16.88;71.53;101155.88;5028403;28;20029;-67
2021/08/16 08:05:14;;;;;;;12.43;4.03;;;;;;;16.86;70.26;101144.41;5030573;28;20017;-64
2021/08/16 08:07:41;;;;;;;9.18;4.10;;;;;;;16.94;70.98;101157.31;5030785;28;20446;-64
2021/08/16 08:10:08;;;;;;;10.68;4.30;;;;;;;17.08;71.13;101173.28;5021993;28;20038;-67
2021/08/16 08:12:33;;;;;;;12.52;4.25;;;;;;;17.12;70.17;101169.47;5029549;28;20109;-66
2021/08/16 08:14:59;;;;;;;12.52;4.30;;;;;;;17.24;73.23;101173.13;5030225;28;20382;-65
2021/08/16 08:17:24;;;;;;;11.63;4.22;;;;;;;17.33;68.99;101177.84;5030023;28;20367;-67
2021/08/16 08:19:50;;;;;;;14.50;5.05;;;;;;;17.38;71.02;101176.66;5025188;28;20037;-67
2021/08/16 08:22:17;;;;;;;11.02;4.65;;;;;;;17.63;66.43;101175.84;5024409;28;20064;-66
2021/08/16 08:24:43;;;;;;;11.65;4.93;;;;;;;17.89;66.88;101176.72;5006455;28;20336;-66
2021/08/16 08:27:08;;;;;;;12.80;5.30;;;;;;;18.09;65.20;101182.50;5026452;28;20513;-66
2021/08/16 08:29:33;;;;;;;12.93;5.60;;;;;;;17.93;65.18;101180.00;5050471;28;20107;-66
2021/08/16 08:31:59;;;;;;;14.02;5.75;;;;;;;17.97;64.48;101192.28;5026166;28;20030;-65
2021/08/16 08:34:24;;;;;;;13.13;5.85;;;;;;;17.87;64.40;101191.19;5018745;28;20025;-66
2021/08/16 08:36:49;;;;;;;12.63;5.45;;;;;;;17.92;64.22;101197.91;5015795;28;20109;-67
2021/08/16 08:39:15;;;;;;;11.77;5.50;;;;;;;18.27;64.97;101197.25;5036477;28;20026;-66
2021/08/16 08:41:40;;;;;;;14.38;6.10;;;;;;;18.10;64.94;101197.63;5029170;28;20017;-65
2021/08/16 08:44:10;;;;;;;13.10;5.45;;;;;;;17.80;65.55;101212.16;5018412;28;20111;-66
2021/08/16 08:46:37;;;;;;;15.60;6.30;;;;;;;17.28;69.35;101209.41;5019721;28;20030;-66
2021/08/16 08:49:03;;;;;;;11.60;5.90;;;;;;;16.66;70.65;101224.13;5028034;28;20391;-66
2021/08/16 08:51:28;;;;;;;20.33;6.43;;;;;;;16.21;75.01;101218.06;5029081;28;20045;-64
2021/08/16 08:53:54;;;;;;;16.20;6.85;;;;;;;15.98;76.42;101219.50;5022911;28;20041;-66
2021/08/16 08:56:19;;;;;;;16.08;7.10;;;;;;;15.88;78.41;101229.88;5014250;28;20030;-66
2021/08/16 08:58:45;;;;;;;14.98;6.50;;;;;;;15.71;77.63;101233.56;5025989;28;20112;-67
2021/08/16 09:01:11;;;;;;;12.82;6.88;;;;;;;15.63;77.79;101233.16;5036782;28;20025;-65
2021/08/16 09:03:46;;;;;;;19.10;7.35;;;;;;;15.56;79.28;101243.34;5029691;28;20128;-68
2021/08/16 09:06:14;;;;;;;16.65;6.88;;;;;;;15.55;78.33;101250.50;5028906;28;20045;-66
2021/08/16 09:08:39;;;;;;;20.65;7.65;;;;;;;15.47;79.10;101235.88;5025411;28;20343;-65
2021/08/16 09:11:13;;;;;;;25.35;8.07;;;;;;;15.40;80.36;101248.72;5023103;28;20041;-66
2021/08/16 09:13:52;;;;;;;21.02;7.68;;;;;;;15.43;80.47;101239.69;5035992;28;20127;-68
2021/08/16 09:16:18;;;;;;;18.63;7.65;;;;;;;15.47;78.68;101246.56;5021055;28;20035;-66
2021/08/16 09:18:43;;;;;;;18.52;7.32;;;;;;;15.68;80.09;101247.09;5020065;28;20049;-66
2021/08/16 09:21:11;;;;;;;18.42;7.80;;;;;;;16.03;78.78;101252.13;5027792;28;20042;-67
2021/08/16 09:23:47;;;;;;;20.55;7.93;;;;;;;16.51;78.43;101249.19;5029191;28;20104;-66
2021/08/16 09:26:18;;;;;;;18.45;7.63;;;;;;;17.16;75.93;101256.59;5029380;28;20025;-67
2021/08/16 09:28:44;;;;;;;14.63;6.25;;;;;;;17.89;71.62;101256.22;5029268;28;20097;-67
2021/08/16 09:31:11;;;;;;;15.48;7.13;;;;;;;18.14;71.50;101260.75;5026073;28;20037;-66
2021/08/16 09:33:37;;;;;;;17.08;7.75;;;;;;;18.58;69.26;101253.19;5025698;28;20018;-65
2021/08/16 09:36:02;;;;;;;16.00;6.70;;;;;;;19.84;66.08;101263.63;5025785;28;20033;-67
2021/08/16 09:38:46;;;;;;;14.98;5.82;;;;;;;20.61;59.60;101250.34;5028501;28;20079;-66
2021/08/16 09:41:23;;;;;;;12.82;6.05;;;;;;;21.37;60.93;101259.44;5022612;28;20037;-66
2021/08/16 09:43:53;;;;;;;12.63;5.28;;;;;;;21.47;54.71;101263.09;5022199;28;20044;-65
2021/08/16 09:46:19;;;;;;;11.38;4.20;;;;;;;20.63;56.33;101264.50;5026169;28;20387;-67
2021/08/16 09:48:58;;;;;;;10.43;4.20;;;;;;;20.11;57.93;101274.03;5028244;28;20084;-65
2021/08/16 09:51:24;;;;;;;8.98;4.20;;;;;;;19.38;61.29;101273.31;5028265;28;20100;-67
2021/08/16 09:53:51;;;;;;;10.10;4.43;;;;;;;18.98;61.76;101286.06;5026383;28;20101;-67
2021/08/16 09:56:18;;;;;;;9.82;3.90;;;;;;;18.90;63.04;101269.66;5030170;28;20078;-64
2021/08/16 09:58:43;;;;;;;10.55;3.78;;;;;;;18.62;61.06;101278.81;5021973;28;20200;-66
2021/08/16 10:01:09;;;;;;;10.80;3.88;;;;;;;18.24;62.75;101277.91;5015050;28;20061;-67
2021/08/16 10:03:37;;;;;;;11.13;3.75;;;;;;;18.16;63.88;101289.16;5038157;28;20033;-67
2021/08/16 10:06:04;;;;;;;9.68;4.28;;;;;;;18.24;64.97;101291.31;5047997;28;20124;-67
2021/08/16 10:08:35;;;;;;;11.95;4.35;;;;;;;18.51;64.03;101304.56;5048893;28;20086;-65
2021/08/16 10:11:01;;;;;;;10.77;5.10;;;;;;;18.33;64.10;101295.16;5048616;28;20045;-66
2021/08/16 10:13:27;;;;;;;13.32;4.63;;;;;;;18.48;63.65;101303.97;5048622;28;20021;-66
2021/08/16 10:16:10;;;;;;;15.15;4.50;;;;;;;18.63;64.48;101323.44;5046338;28;20021;-67
2021/08/16 10:18:45;;;;;;;14.43;4.57;;;;;;;18.53;63.98;101317.03;5015154;28;20025;-67
2021/08/16 10:21:17;;;;;;;12.90;4.85;;;;;;;18.71;63.71;101325.56;5017022;28;20387;-67
2021/08/16 10:23:55;;;;;;;11.77;4.53;;;;;;;18.50;64.80;101342.22;5029689;28;20033;-67
2021/08/16 10:26:29;;;;;;;10.43;4.70;;;;;;;18.04;67.85;101345.44;5017186;28;20075;-66
2021/08/16 10:29:03;;;;;;;9.27;4.03;;;;;;;17.24;68.35;101330.16;5032361;28;20080;-66
2021/08/16 10:31:34;;;;;;;7.72;3.70;;;;;;;16.75;70.88;101334.13;5031921;28;20055;-65
2021/08/16 10:34:00;;;;;;;11.38;4.43;;;;;;;16.64;71.49;101342.84;5031797;28;20029;-64
2021/08/16 10:36:26;;;;;;;10.52;4.70;;;;;;;16.69;75.06;101362.97;5013909;28;20051;-66
2021/08/16 10:38:54;;;;;;;8.23;3.90;;;;;;;16.35;70.88;101385.59;5032305;28;20501;-67
2021/08/16 10:41:28;;;;;;;6.10;3.25;;;;;;;15.98;70.70;101371.75;5033454;28;20022;-65
2021/08/16 10:43:54;;;;;;;8.82;3.70;;;;;;;15.91;71.82;101367.72;5031700;28;20099;-67
2021/08/16 10:46:22;;;;;;;15.30;4.10;;;;;;;15.85;73.32;101361.78;5019347;28;20125;-67
2021/08/16 10:49:03;;;;;;;11.30;4.18;;;;;;;16.02;72.41;101367.94;5031878;28;20033;-66
2021/08/16 10:51:45;;;;;;;8.25;3.92;;;;;;;16.32;72.73;101359.91;5033006;28;20406;-66
2021/08/16 10:54:28;;;;;;;10.80;4.00;;;;;;;16.54;70.62;101358.59;5030128;28;20025;-67
2021/08/16 10:56:55;;;;;;;8.55;3.80;;;;;;;16.77;71.40;101356.31;5026878;28;20064;-65
2021/08/16 10:59:22;;;;;;;9.40;3.58;;;;;;;17.23;68.63;101356.06;5027874;28;20021;-66
2021/08/16 11:01:48;;;;;;;11.10;3.58;;;;;;;17.45;70.28;101350.16;5029278;28;20049;-66
2021/08/16 11:04:16;;;;;;;9.90;3.63;;;;;;;17.50;66.66;101349.88;5031313;28;20127;-66
2021/08/16 11:06:55;;;;;;;10.88;3.70;;;;;;;17.30;66.77;101360.06;5030136;28;20033;-66
2021/08/16 11:09:33;;;;;;;9.57;4.03;;;;;;;17.32;67.24;101360.81;5012301;28;20064;-66
2021/08/16 11:12:07;;;;;;;12.60;4.15;;;;;;;17.26;67.98;101368.41;5032716;28;20053;-64
2021/08/16 11:14:38;;;;;;;10.23;3.30;;;;;;;17.17;69.01;101375.19;5051124;28;20139;-66
2021/08/16 11:17:05;;;;;;;13.47;4.00;;;;;;;17.09;67.40;101372.16;5032316;28;20057;-66